sensor_id;sensor_type;location;lat;lon;timestamp;pressure;altitude;pressure_sealevel;temperature;humidity
16690;BME280;8458;52.220;9.884;2022-09-21T00:01:28;101769.47;;;9.98;90.83
16690;BME280;8458;52.220;9.884;2022-09-21T00:03:57;101763.84;;;9.86;91.15
16690;BME280;8458;52.220;9.884;2022-09-21T00:06:26;101767.19;;;9.77;91.95
16690;BME280;8458;52.220;9.884;2022-09-21T00:08:54;101767.88;;;9.72;92.29
16690;BME280;8458;52.220;9.884;2022-09-21T00:11:23;101767.75;;;9.67;92.66
16690;BME280;8458;52.220;9.884;2022-09-21T00:13:52;101773.34;;;9.60;93.34
16690;BME280;8458;52.220;9.884;2022-09-21T00:16:20;101766.50;;;9.63;93.40
16690;BME280;8458;52.220;9.884;2022-09-21T00:18:48;101774.50;;;9.71;93.14
16690;BME280;8458;52.220;9.884;2022-09-21T00:21:15;101770.66;;;9.72;93.21
16690;BME280;8458;52.220;9.884;2022-09-21T00:23:43;101777.03;;;9.73;92.67
16690;BME280;8458;52.220;9.884;2022-09-21T00:26:11;101773.19;;;9.74;92.38
16690;BME280;8458;52.220;9.884;2022-09-21T00:28:38;101777.91;;;9.73;91.96
16690;BME280;8458;52.220;9.884;2022-09-21T00:31:07;101767.66;;;9.74;91.72
16690;BME280;8458;52.220;9.884;2022-09-21T00:33:37;101772.34;;;9.73;91.77
16690;BME280;8458;52.220;9.884;2022-09-21T00:36:05;101778.81;;;9.67;91.75
16690;BME280;8458;52.220;9.884;2022-09-21T00:38:33;101771.13;;;9.69;91.81
16690;BME280;8458;52.220;9.884;2022-09-21T00:41:00;101783.97;;;9.63;92.21
16690;BME280;8458;52.220;9.884;2022-09-21T00:43:26;101782.59;;;9.54;92.98
16690;BME280;8458;52.220;9.884;2022-09-21T00:45:58;101786.03;;;9.49;93.55
16690;BME280;8458;52.220;9.884;2022-09-21T00:48:26;101782.06;;;9.45;93.93
16690;BME280;8458;52.220;9.884;2022-09-21T00:50:56;101776.06;;;9.48;94.39
16690;BME280;8458;52.220;9.884;2022-09-21T00:53:26;101779.75;;;9.42;94.55
16690;BME280;8458;52.220;9.884;2022-09-21T00:55:55;101776.19;;;9.35;95.09
16690;BME280;8458;52.220;9.884;2022-09-21T00:58:26;101785.44;;;9.29;95.74
16690;BME280;8458;52.220;9.884;2022-09-21T01:00:55;101787.38;;;9.28;95.52
16690;BME280;8458;52.220;9.884;2022-09-21T01:03:23;101788.56;;;9.32;95.67
16690;BME280;8458;52.220;9.884;2022-09-21T01:05:49;101799.66;;;9.32;95.30
16690;BME280;8458;52.220;9.884;2022-09-21T01:08:18;101789.13;;;9.41;95.10
16690;BME280;8458;52.220;9.884;2022-09-21T01:10:57;101795.69;;;9.47;94.43
16690;BME280;8458;52.220;9.884;2022-09-21T01:13:37;101792.22;;;9.51;93.96
16690;BME280;8458;52.220;9.884;2022-09-21T01:16:13;101791.75;;;9.55;93.50
16690;BME280;8458;52.220;9.884;2022-09-21T01:18:44;101796.19;;;9.56;93.24
16690;BME280;8458;52.220;9.884;2022-09-21T01:21:18;101802.84;;;9.55;92.76
16690;BME280;8458;52.220;9.884;2022-09-21T01:24:07;101799.38;;;9.59;92.33
16690;BME280;8458;52.220;9.884;2022-09-21T01:26:52;101798.34;;;9.54;92.01
16690;BME280;8458;52.220;9.884;2022-09-21T01:29:26;101801.59;;;9.50;91.86
16690;BME280;8458;52.220;9.884;2022-09-21T01:31:59;101799.13;;;9.42;91.73
16690;BME280;8458;52.220;9.884;2022-09-21T01:34:33;101798.59;;;9.52;91.71
16690;BME280;8458;52.220;9.884;2022-09-21T01:37:03;101803.28;;;9.51;91.39
16690;BME280;8458;52.220;9.884;2022-09-21T01:39:33;101806.75;;;9.47;91.25
16690;BME280;8458;52.220;9.884;2022-09-21T01:42:01;101816.72;;;9.48;91.11
16690;BME280;8458;52.220;9.884;2022-09-21T01:44:31;101810.03;;;9.37;90.75
16690;BME280;8458;52.220;9.884;2022-09-21T01:47:00;101813.25;;;9.34;91.07
16690;BME280;8458;52.220;9.884;2022-09-21T01:49:30;101816.09;;;9.27;91.15
16690;BME280;8458;52.220;9.884;2022-09-21T01:52:10;101804.06;;;9.22;91.53
16690;BME280;8458;52.220;9.884;2022-09-21T01:54:42;101812.03;;;9.30;91.73
16690;BME280;8458;52.220;9.884;2022-09-21T01:57:15;101815.41;;;9.32;91.59
16690;BME280;8458;52.220;9.884;2022-09-21T01:59:50;101796.44;;;9.17;92.20
16690;BME280;8458;52.220;9.884;2022-09-21T02:02:21;101814.47;;;9.20;92.40
16690;BME280;8458;52.220;9.884;2022-09-21T02:04:50;101815.63;;;9.12;93.14
16690;BME280;8458;52.220;9.884;2022-09-21T02:07:17;101813.50;;;9.14;93.20
16690;BME280;8458;52.220;9.884;2022-09-21T02:09:45;101813.06;;;9.10;93.50
16690;BME280;8458;52.220;9.884;2022-09-21T02:12:12;101813.94;;;9.11;93.16
16690;BME280;8458;52.220;9.884;2022-09-21T02:14:39;101812.69;;;9.07;93.22
16690;BME280;8458;52.220;9.884;2022-09-21T02:17:16;101803.09;;;9.09;93.73
16690;BME280;8458;52.220;9.884;2022-09-21T02:19:54;101819.66;;;8.91;93.88
16690;BME280;8458;52.220;9.884;2022-09-21T02:22:30;101814.22;;;8.77;94.99
16690;BME280;8458;52.220;9.884;2022-09-21T02:25:05;101802.34;;;8.77;95.38
16690;BME280;8458;52.220;9.884;2022-09-21T02:27:35;101805.53;;;8.74;95.10
16690;BME280;8458;52.220;9.884;2022-09-21T02:30:06;101806.16;;;8.76;95.26
16690;BME280;8458;52.220;9.884;2022-09-21T02:32:39;101810.44;;;8.72;95.58
16690;BME280;8458;52.220;9.884;2022-09-21T02:35:22;101810.09;;;8.61;96.00
16690;BME280;8458;52.220;9.884;2022-09-21T02:38:00;101804.16;;;8.58;96.34
16690;BME280;8458;52.220;9.884;2022-09-21T02:40:32;101809.25;;;8.61;96.76
16690;BME280;8458;52.220;9.884;2022-09-21T02:43:04;101796.50;;;8.60;96.55
16690;BME280;8458;52.220;9.884;2022-09-21T02:45:36;101808.19;;;8.62;96.52
16690;BME280;8458;52.220;9.884;2022-09-21T02:48:10;101805.78;;;8.72;95.89
16690;BME280;8458;52.220;9.884;2022-09-21T02:50:43;101806.53;;;8.79;95.42
16690;BME280;8458;52.220;9.884;2022-09-21T02:53:10;101806.97;;;8.83;94.51
16690;BME280;8458;52.220;9.884;2022-09-21T02:55:38;101812.72;;;8.82;93.80
16690;BME280;8458;52.220;9.884;2022-09-21T02:58:06;101807.34;;;8.87;93.32
16690;BME280;8458;52.220;9.884;2022-09-21T03:00:35;101805.63;;;8.86;92.51
16690;BME280;8458;52.220;9.884;2022-09-21T03:03:15;101803.91;;;8.91;91.98
16690;BME280;8458;52.220;9.884;2022-09-21T03:05:43;101809.03;;;8.88;91.74
16690;BME280;8458;52.220;9.884;2022-09-21T03:08:10;101812.81;;;8.93;91.47
16690;BME280;8458;52.220;9.884;2022-09-21T03:10:37;101812.13;;;8.98;91.25
16690;BME280;8458;52.220;9.884;2022-09-21T03:13:04;101818.75;;;8.97;91.03
16690;BME280;8458;52.220;9.884;2022-09-21T03:15:33;101816.25;;;8.89;90.65
16690;BME280;8458;52.220;9.884;2022-09-21T03:17:59;101809.38;;;8.98;90.42
16690;BME280;8458;52.220;9.884;2022-09-21T03:20:28;101807.72;;;8.90;90.38
16690;BME280;8458;52.220;9.884;2022-09-21T03:22:56;101814.63;;;8.81;90.65
16690;BME280;8458;52.220;9.884;2022-09-21T03:25:22;101816.38;;;8.75;90.98
16690;BME280;8458;52.220;9.884;2022-09-21T03:27:50;101820.22;;;8.74;90.97
16690;BME280;8458;52.220;9.884;2022-09-21T03:30:18;101817.50;;;8.68;91.26
16690;BME280;8458;52.220;9.884;2022-09-21T03:32:44;101826.19;;;8.71;91.03
16690;BME280;8458;52.220;9.884;2022-09-21T03:35:11;101817.44;;;8.74;90.93
16690;BME280;8458;52.220;9.884;2022-09-21T03:37:39;101823.19;;;8.73;90.95
16690;BME280;8458;52.220;9.884;2022-09-21T03:40:06;101815.75;;;8.73;90.99
16690;BME280;8458;52.220;9.884;2022-09-21T03:42:33;101819.59;;;8.72;90.76
16690;BME280;8458;52.220;9.884;2022-09-21T03:44:59;101828.34;;;8.69;90.60
16690;BME280;8458;52.220;9.884;2022-09-21T03:47:26;101826.56;;;8.75;90.50
16690;BME280;8458;52.220;9.884;2022-09-21T03:49:53;101822.38;;;8.66;89.86
16690;BME280;8458;52.220;9.884;2022-09-21T03:52:19;101826.63;;;8.68;89.59
16690;BME280;8458;52.220;9.884;2022-09-21T03:54:47;101829.63;;;8.67;89.56
16690;BME280;8458;52.220;9.884;2022-09-21T03:57:14;101825.44;;;8.57;89.89
16690;BME280;8458;52.220;9.884;2022-09-21T03:59:40;101833.28;;;8.60;89.94
16690;BME280;8458;52.220;9.884;2022-09-21T04:02:07;101828.72;;;8.48;90.24
16690;BME280;8458;52.220;9.884;2022-09-21T04:04:33;101829.78;;;8.47;90.75
16690;BME280;8458;52.220;9.884;2022-09-21T04:07:01;101828.09;;;8.39;91.25
16690;BME280;8458;52.220;9.884;2022-09-21T04:09:29;101826.25;;;8.26;91.91
16690;BME280;8458;52.220;9.884;2022-09-21T04:11:56;101833.28;;;8.22;92.29
16690;BME280;8458;52.220;9.884;2022-09-21T04:14:23;101830.03;;;8.32;92.12
16690;BME280;8458;52.220;9.884;2022-09-21T04:16:49;101834.91;;;8.36;92.12
16690;BME280;8458;52.220;9.884;2022-09-21T04:19:16;101835.78;;;8.30;91.79
16690;BME280;8458;52.220;9.884;2022-09-21T04:21:43;101836.22;;;8.27;91.86
16690;BME280;8458;52.220;9.884;2022-09-21T04:24:10;101834.72;;;8.31;91.67
16690;BME280;8458;52.220;9.884;2022-09-21T04:26:36;101843.41;;;8.35;91.55
16690;BME280;8458;52.220;9.884;2022-09-21T04:29:06;101842.63;;;8.28;91.38
16690;BME280;8458;52.220;9.884;2022-09-21T04:31:32;101848.16;;;8.28;90.87
16690;BME280;8458;52.220;9.884;2022-09-21T04:33:59;101851.13;;;8.26;90.44
16690;BME280;8458;52.220;9.884;2022-09-21T04:36:27;101843.47;;;8.28;90.02
16690;BME280;8458;52.220;9.884;2022-09-21T04:38:53;101840.53;;;8.23;89.50
16690;BME280;8458;52.220;9.884;2022-09-21T04:41:20;101837.09;;;8.21;89.47
16690;BME280;8458;52.220;9.884;2022-09-21T04:43:47;101831.22;;;8.11;89.54
16690;BME280;8458;52.220;9.884;2022-09-21T04:46:17;101847.38;;;8.07;89.89
16690;BME280;8458;52.220;9.884;2022-09-21T04:48:44;101839.31;;;8.05;90.02
16690;BME280;8458;52.220;9.884;2022-09-21T04:51:11;101845.28;;;8.02;90.31
16690;BME280;8458;52.220;9.884;2022-09-21T04:53:39;101850.19;;;8.00;90.53
16690;BME280;8458;52.220;9.884;2022-09-21T04:56:08;101851.66;;;8.03;90.40
16690;BME280;8458;52.220;9.884;2022-09-21T04:58:35;101852.50;;;8.03;90.42
16690;BME280;8458;52.220;9.884;2022-09-21T05:01:01;101855.88;;;8.05;90.07
16690;BME280;8458;52.220;9.884;2022-09-21T05:03:31;101856.75;;;8.06;90.02
16690;BME280;8458;52.220;9.884;2022-09-21T05:05:58;101863.56;;;8.03;90.21
16690;BME280;8458;52.220;9.884;2022-09-21T05:08:25;101865.47;;;8.03;89.98
16690;BME280;8458;52.220;9.884;2022-09-21T05:11:07;101861.44;;;7.99;89.75
16690;BME280;8458;52.220;9.884;2022-09-21T05:13:34;101863.59;;;7.97;89.63
16690;BME280;8458;52.220;9.884;2022-09-21T05:16:01;101869.09;;;8.03;91.38
16690;BME280;8458;52.220;9.884;2022-09-21T05:18:27;101873.41;;;7.86;90.19
16690;BME280;8458;52.220;9.884;2022-09-21T05:20:55;101869.59;;;7.80;89.95
16690;BME280;8458;52.220;9.884;2022-09-21T05:23:22;101879.84;;;7.73;90.09
16690;BME280;8458;52.220;9.884;2022-09-21T05:25:49;101873.50;;;7.52;90.69
16690;BME280;8458;52.220;9.884;2022-09-21T05:28:17;101875.19;;;7.53;91.46
16690;BME280;8458;52.220;9.884;2022-09-21T05:30:45;101880.75;;;7.47;91.87
16690;BME280;8458;52.220;9.884;2022-09-21T05:33:15;101876.91;;;7.41;92.29
16690;BME280;8458;52.220;9.884;2022-09-21T05:35:54;101882.88;;;7.31;93.49
16690;BME280;8458;52.220;9.884;2022-09-21T05:38:26;101885.41;;;7.26;93.75
16690;BME280;8458;52.220;9.884;2022-09-21T05:40:52;101876.50;;;7.11;95.01
16690;BME280;8458;52.220;9.884;2022-09-21T05:43:19;101887.34;;;7.06;95.78
16690;BME280;8458;52.220;9.884;2022-09-21T05:45:50;101882.88;;;7.05;96.20
16690;BME280;8458;52.220;9.884;2022-09-21T05:48:21;101887.97;;;7.08;96.51
16690;BME280;8458;52.220;9.884;2022-09-21T05:50:54;101893.72;;;7.13;96.16
16690;BME280;8458;52.220;9.884;2022-09-21T05:53:36;101890.53;;;7.16;96.76
16690;BME280;8458;52.220;9.884;2022-09-21T05:56:15;101888.41;;;7.18;96.60
16690;BME280;8458;52.220;9.884;2022-09-21T05:58:51;101894.78;;;7.25;96.65
16690;BME280;8458;52.220;9.884;2022-09-21T06:01:34;101902.41;;;7.30;96.30
16690;BME280;8458;52.220;9.884;2022-09-21T06:04:03;101896.44;;;7.26;96.26
16690;BME280;8458;52.220;9.884;2022-09-21T06:06:29;101897.50;;;7.32;96.32
16690;BME280;8458;52.220;9.884;2022-09-21T06:08:57;101904.94;;;7.38;96.71
16690;BME280;8458;52.220;9.884;2022-09-21T06:11:24;101912.16;;;7.39;96.64
16690;BME280;8458;52.220;9.884;2022-09-21T06:13:50;101918.94;;;7.36;97.00
16690;BME280;8458;52.220;9.884;2022-09-21T06:16:16;101919.81;;;7.44;97.72
16690;BME280;8458;52.220;9.884;2022-09-21T06:18:43;101919.16;;;7.55;97.78
16690;BME280;8458;52.220;9.884;2022-09-21T06:21:09;101921.91;;;7.55;98.15
16690;BME280;8458;52.220;9.884;2022-09-21T06:23:36;101927.19;;;7.63;98.07
16690;BME280;8458;52.220;9.884;2022-09-21T06:26:04;101926.56;;;7.61;98.11
16690;BME280;8458;52.220;9.884;2022-09-21T06:28:30;101932.94;;;7.55;99.19
16690;BME280;8458;52.220;9.884;2022-09-21T06:30:57;101933.38;;;7.45;100.00
16690;BME280;8458;52.220;9.884;2022-09-21T06:33:24;101927.84;;;7.39;100.00
16690;BME280;8458;52.220;9.884;2022-09-21T06:35:51;101929.13;;;7.43;100.00
16690;BME280;8458;52.220;9.884;2022-09-21T06:38:18;101930.84;;;7.30;100.00
16690;BME280;8458;52.220;9.884;2022-09-21T06:40:45;101928.72;;;7.46;100.00
16690;BME280;8458;52.220;9.884;2022-09-21T06:43:13;101931.91;;;7.43;100.00
16690;BME280;8458;52.220;9.884;2022-09-21T06:45:39;101929.13;;;7.49;100.00
16690;BME280;8458;52.220;9.884;2022-09-21T06:48:06;101932.72;;;7.57;100.00
16690;BME280;8458;52.220;9.884;2022-09-21T06:50:32;101929.13;;;7.56;100.00
16690;BME280;8458;52.220;9.884;2022-09-21T06:52:59;101934.63;;;7.69;100.00
16690;BME280;8458;52.220;9.884;2022-09-21T06:55:25;101934.41;;;7.78;100.00
16690;BME280;8458;52.220;9.884;2022-09-21T06:57:52;101935.25;;;7.78;100.00
16690;BME280;8458;52.220;9.884;2022-09-21T07:00:22;101930.13;;;7.82;100.00
16690;BME280;8458;52.220;9.884;2022-09-21T07:02:48;101936.31;;;7.84;100.00
16690;BME280;8458;52.220;9.884;2022-09-21T07:05:14;101933.13;;;7.87;100.00
16690;BME280;8458;52.220;9.884;2022-09-21T07:07:41;101939.00;;;7.97;100.00
16690;BME280;8458;52.220;9.884;2022-09-21T07:10:08;101936.66;;;8.01;100.00
16690;BME280;8458;52.220;9.884;2022-09-21T07:12:34;101939.19;;;8.02;100.00
16690;BME280;8458;52.220;9.884;2022-09-21T07:15:01;101945.56;;;8.10;100.00
16690;BME280;8458;52.220;9.884;2022-09-21T07:17:31;101941.75;;;8.11;100.00
16690;BME280;8458;52.220;9.884;2022-09-21T07:19:58;101932.75;;;8.22;100.00
16690;BME280;8458;52.220;9.884;2022-09-21T07:22:27;101930.63;;;8.24;100.00
16690;BME280;8458;52.220;9.884;2022-09-21T07:24:53;101932.72;;;8.35;100.00
16690;BME280;8458;52.220;9.884;2022-09-21T07:27:20;101931.00;;;8.48;100.00
16690;BME280;8458;52.220;9.884;2022-09-21T07:29:46;101937.09;;;8.56;100.00
16690;BME280;8458;52.220;9.884;2022-09-21T07:32:12;101939.84;;;8.63;100.00
16690;BME280;8458;52.220;9.884;2022-09-21T07:34:40;101931.94;;;8.67;100.00
16690;BME280;8458;52.220;9.884;2022-09-21T07:37:07;101941.44;;;8.77;100.00
16690;BME280;8458;52.220;9.884;2022-09-21T07:39:33;101944.38;;;8.83;100.00
16690;BME280;8458;52.220;9.884;2022-09-21T07:42:00;101946.53;;;8.81;100.00
16690;BME280;8458;52.220;9.884;2022-09-21T07:44:27;101937.53;;;8.92;100.00
16690;BME280;8458;52.220;9.884;2022-09-21T07:46:53;101934.50;;;9.00;100.00
16690;BME280;8458;52.220;9.884;2022-09-21T07:49:20;101935.63;;;9.18;100.00
16690;BME280;8458;52.220;9.884;2022-09-21T07:51:48;101932.59;;;9.26;100.00
16690;BME280;8458;52.220;9.884;2022-09-21T07:54:14;101934.16;;;9.40;100.00
16690;BME280;8458;52.220;9.884;2022-09-21T07:56:41;101936.34;;;9.57;100.00
16690;BME280;8458;52.220;9.884;2022-09-21T07:59:27;101927.97;;;9.63;100.00
16690;BME280;8458;52.220;9.884;2022-09-21T08:01:57;101934.06;;;9.72;100.00
16690;BME280;8458;52.220;9.884;2022-09-21T08:04:23;101943.19;;;9.79;100.00
16690;BME280;8458;52.220;9.884;2022-09-21T08:06:51;101937.09;;;9.89;100.00
16690;BME280;8458;52.220;9.884;2022-09-21T08:09:17;101940.09;;;10.06;100.00
16690;BME280;8458;52.220;9.884;2022-09-21T08:11:44;101944.81;;;10.24;100.00
16690;BME280;8458;52.220;9.884;2022-09-21T08:14:11;101940.88;;;10.32;100.00
16690;BME280;8458;52.220;9.884;2022-09-21T08:16:44;101948.06;;;10.39;100.00
16690;BME280;8458;52.220;9.884;2022-09-21T08:19:11;101940.72;;;10.45;100.00
16690;BME280;8458;52.220;9.884;2022-09-21T08:21:37;101936.19;;;10.63;100.00
16690;BME280;8458;52.220;9.884;2022-09-21T08:24:06;101950.69;;;10.65;100.00
16690;BME280;8458;52.220;9.884;2022-09-21T08:26:32;101943.16;;;10.84;100.00
16690;BME280;8458;52.220;9.884;2022-09-21T08:28:59;101931.31;;;10.76;100.00
16690;BME280;8458;52.220;9.884;2022-09-21T08:31:25;101936.81;;;10.95;100.00
16690;BME280;8458;52.220;9.884;2022-09-21T08:33:53;101943.25;;;11.19;100.00
16690;BME280;8458;52.220;9.884;2022-09-21T08:36:20;101945.09;;;11.25;100.00
16690;BME280;8458;52.220;9.884;2022-09-21T08:38:46;101946.91;;;11.32;99.70
16690;BME280;8458;52.220;9.884;2022-09-21T08:41:16;101936.19;;;11.47;99.26
16690;BME280;8458;52.220;9.884;2022-09-21T08:43:47;101947.91;;;11.61;98.48
16690;BME280;8458;52.220;9.884;2022-09-21T08:46:16;101938.22;;;11.75;97.11
16690;BME280;8458;52.220;9.884;2022-09-21T08:48:46;101945.22;;;11.90;96.39
16690;BME280;8458;52.220;9.884;2022-09-21T08:51:16;101936.19;;;11.94;95.45
16690;BME280;8458;52.220;9.884;2022-09-21T08:53:48;101939.09;;;11.99;93.84
16690;BME280;8458;52.220;9.884;2022-09-21T08:56:19;101937.34;;;12.22;94.89
16690;BME280;8458;52.220;9.884;2022-09-21T08:58:47;101937.16;;;12.41;93.67
16690;BME280;8458;52.220;9.884;2022-09-21T09:01:32;101939.88;;;12.64;93.08
16690;BME280;8458;52.220;9.884;2022-09-21T09:04:24;101943.84;;;12.68;89.98
16690;BME280;8458;52.220;9.884;2022-09-21T09:07:03;101934.69;;;12.85;89.34
16690;BME280;8458;52.220;9.884;2022-09-21T09:09:43;101947.53;;;12.86;85.70
16690;BME280;8458;52.220;9.884;2022-09-21T09:12:25;101945.69;;;13.08;87.28
16690;BME280;8458;52.220;9.884;2022-09-21T09:17:50;101946.56;;;13.60;86.81
16690;BME280;8458;52.220;9.884;2022-09-21T09:20:25;101946.81;;;13.75;83.59
16690;BME280;8458;52.220;9.884;2022-09-21T09:23:02;101944.78;;;13.88;82.79
16690;BME280;8458;52.220;9.884;2022-09-21T09:25:34;101944.16;;;14.03;82.00
16690;BME280;8458;52.220;9.884;2022-09-21T09:28:12;101948.06;;;14.24;82.04
16690;BME280;8458;52.220;9.884;2022-09-21T09:30:41;101950.44;;;14.37;81.50
16690;BME280;8458;52.220;9.884;2022-09-21T09:33:12;101951.44;;;14.48;80.73
16690;BME280;8458;52.220;9.884;2022-09-21T09:35:45;101949.81;;;14.74;80.47
16690;BME280;8458;52.220;9.884;2022-09-21T09:38:18;101954.34;;;14.80;78.65
16690;BME280;8458;52.220;9.884;2022-09-21T09:41:04;101945.31;;;14.51;77.73
16690;BME280;8458;52.220;9.884;2022-09-21T09:43:47;101941.66;;;14.45;77.95
16690;BME280;8458;52.220;9.884;2022-09-21T09:46:25;101944.84;;;14.59;76.82
16690;BME280;8458;52.220;9.884;2022-09-21T09:49:23;101949.94;;;14.84;77.33
16690;BME280;8458;52.220;9.884;2022-09-21T09:51:54;101940.66;;;15.06;75.76
16690;BME280;8458;52.220;9.884;2022-09-21T09:54:23;101947.56;;;15.31;74.29
16690;BME280;8458;52.220;9.884;2022-09-21T09:56:49;101945.25;;;15.55;74.27
16690;BME280;8458;52.220;9.884;2022-09-21T09:59:24;101948.47;;;15.74;74.87
16690;BME280;8458;52.220;9.884;2022-09-21T10:02:00;101950.56;;;15.94;71.86
16690;BME280;8458;52.220;9.884;2022-09-21T10:04:28;101944.13;;;15.88;70.35
16690;BME280;8458;52.220;9.884;2022-09-21T10:06:55;101946.38;;;15.91;70.79
16690;BME280;8458;52.220;9.884;2022-09-21T10:09:26;101947.44;;;15.80;69.93
16690;BME280;8458;52.220;9.884;2022-09-21T10:11:55;101939.31;;;15.84;70.67
16690;BME280;8458;52.220;9.884;2022-09-21T10:14:26;101946.19;;;16.13;70.99
16690;BME280;8458;52.220;9.884;2022-09-21T10:16:55;101940.41;;;16.36;70.22
16690;BME280;8458;52.220;9.884;2022-09-21T10:19:26;101933.72;;;16.42;68.84
16690;BME280;8458;52.220;9.884;2022-09-21T10:21:55;101927.06;;;16.58;66.48
16690;BME280;8458;52.220;9.884;2022-09-21T10:24:24;101926.84;;;16.75;68.10
16690;BME280;8458;52.220;9.884;2022-09-21T10:26:54;101927.97;;;16.79;67.78
16690;BME280;8458;52.220;9.884;2022-09-21T10:29:31;101928.31;;;17.03;66.92
16690;BME280;8458;52.220;9.884;2022-09-21T10:32:07;101927.19;;;17.15;65.66
16690;BME280;8458;52.220;9.884;2022-09-21T10:35:00;101921.03;;;17.44;66.61
16690;BME280;8458;52.220;9.884;2022-09-21T10:37:28;101929.44;;;17.49;64.78
16690;BME280;8458;52.220;9.884;2022-09-21T10:39:58;101920.44;;;17.72;64.12
16690;BME280;8458;52.220;9.884;2022-09-21T10:42:24;101910.31;;;17.77;62.54
16690;BME280;8458;52.220;9.884;2022-09-21T10:45:05;101911.44;;;17.81;59.98
16690;BME280;8458;52.220;9.884;2022-09-21T10:47:35;101915.38;;;17.64;57.92
16690;BME280;8458;52.220;9.884;2022-09-21T10:50:05;101913.09;;;17.87;59.05
16690;BME280;8458;52.220;9.884;2022-09-21T10:52:34;101916.50;;;17.89;58.80
16690;BME280;8458;52.220;9.884;2022-09-21T10:55:01;101922.09;;;17.99;59.86
16690;BME280;8458;52.220;9.884;2022-09-21T10:57:28;101915.88;;;18.07;59.45
16690;BME280;8458;52.220;9.884;2022-09-21T11:00:11;101911.91;;;18.24;58.67
16690;BME280;8458;52.220;9.884;2022-09-21T11:02:43;101912.94;;;18.38;57.40
16690;BME280;8458;52.220;9.884;2022-09-21T11:05:16;101908.72;;;18.41;55.15
16690;BME280;8458;52.220;9.884;2022-09-21T11:07:49;101904.50;;;18.43;56.25
16690;BME280;8458;52.220;9.884;2022-09-21T11:10:20;101897.13;;;18.58;56.33
16690;BME280;8458;52.220;9.884;2022-09-21T11:12:59;101906.03;;;18.65;56.13
16690;BME280;8458;52.220;9.884;2022-09-21T11:15:37;101906.25;;;18.79;55.67
16690;BME280;8458;52.220;9.884;2022-09-21T11:18:13;101910.50;;;18.71;54.21
16690;BME280;8458;52.220;9.884;2022-09-21T11:20:45;101912.13;;;18.83;54.84
16690;BME280;8458;52.220;9.884;2022-09-21T11:23:32;101910.91;;;18.99;55.50
16690;BME280;8458;52.220;9.884;2022-09-21T11:26:06;101907.19;;;18.64;54.05
16690;BME280;8458;52.220;9.884;2022-09-21T11:28:38;101903.69;;;18.88;53.20
16690;BME280;8458;52.220;9.884;2022-09-21T11:34:12;101906.41;;;19.03;52.40
16690;BME280;8458;52.220;9.884;2022-09-21T11:36:48;101895.56;;;19.21;53.90
16690;BME280;8458;52.220;9.884;2022-09-21T11:39:26;101898.28;;;19.31;53.71
16690;BME280;8458;52.220;9.884;2022-09-21T11:42:11;101904.22;;;19.29;52.81
16690;BME280;8458;52.220;9.884;2022-09-21T11:44:50;101904.00;;;19.50;51.47
16690;BME280;8458;52.220;9.884;2022-09-21T11:47:34;101899.72;;;19.58;50.93
16690;BME280;8458;52.220;9.884;2022-09-21T11:50:17;101891.84;;;19.60;48.85
16690;BME280;8458;52.220;9.884;2022-09-21T11:52:59;101892.63;;;19.36;48.03
16690;BME280;8458;52.220;9.884;2022-09-21T11:55:38;101891.19;;;19.39;48.41
16690;BME280;8458;52.220;9.884;2022-09-21T11:58:12;101892.13;;;19.29;48.01
16690;BME280;8458;52.220;9.884;2022-09-21T12:00:48;101877.88;;;19.20;48.21
16690;BME280;8458;52.220;9.884;2022-09-21T12:03:36;101877.13;;;19.09;48.23
16690;BME280;8458;52.220;9.884;2022-09-21T12:06:28;101879.91;;;18.70;47.98
16690;BME280;8458;52.220;9.884;2022-09-21T12:09:23;101869.53;;;18.70;48.47
16690;BME280;8458;52.220;9.884;2022-09-21T12:11:57;101871.25;;;19.06;48.45
16690;BME280;8458;52.220;9.884;2022-09-21T12:14:31;101869.53;;;19.39;48.31
16690;BME280;8458;52.220;9.884;2022-09-21T12:17:07;101870.53;;;19.53;48.49
16690;BME280;8458;52.220;9.884;2022-09-21T12:19:44;101866.06;;;19.77;47.86
16690;BME280;8458;52.220;9.884;2022-09-21T12:22:15;101869.50;;;19.98;46.24
16690;BME280;8458;52.220;9.884;2022-09-21T12:24:46;101866.66;;;20.22;46.33
16690;BME280;8458;52.220;9.884;2022-09-21T12:27:20;101870.00;;;20.43;45.63
16690;BME280;8458;52.220;9.884;2022-09-21T12:29:54;101862.50;;;20.57;45.31
16690;BME280;8458;52.220;9.884;2022-09-21T12:32:27;101859.53;;;20.68;45.04
16690;BME280;8458;52.220;9.884;2022-09-21T12:35:03;101861.69;;;20.76;44.50
16690;BME280;8458;52.220;9.884;2022-09-21T12:37:37;101854.28;;;20.99;45.39
16690;BME280;8458;52.220;9.884;2022-09-21T12:40:13;101857.47;;;21.25;44.55
16690;BME280;8458;52.220;9.884;2022-09-21T12:42:49;101858.84;;;21.28;42.82
16690;BME280;8458;52.220;9.884;2022-09-21T12:45:21;101859.53;;;20.68;44.03
16690;BME280;8458;52.220;9.884;2022-09-21T12:47:54;101858.00;;;20.75;43.47
16690;BME280;8458;52.220;9.884;2022-09-21T12:50:27;101847.78;;;20.99;42.45
16690;BME280;8458;52.220;9.884;2022-09-21T12:52:56;101852.81;;;21.02;43.03
16690;BME280;8458;52.220;9.884;2022-09-21T12:55:39;101839.88;;;20.63;42.04
16690;BME280;8458;52.220;9.884;2022-09-21T12:58:19;101846.44;;;20.39;40.62
16690;BME280;8458;52.220;9.884;2022-09-21T13:00:58;101847.28;;;20.15;41.78
16690;BME280;8458;52.220;9.884;2022-09-21T13:03:31;101839.72;;;20.35;42.60
16690;BME280;8458;52.220;9.884;2022-09-21T13:06:22;101842.75;;;20.19;40.62
16690;BME280;8458;52.220;9.884;2022-09-21T13:08:54;101844.06;;;20.03;41.73
16690;BME280;8458;52.220;9.884;2022-09-21T13:11:22;101839.03;;;20.24;42.05
16690;BME280;8458;52.220;9.884;2022-09-21T13:13:51;101839.03;;;20.43;43.56
16690;BME280;8458;52.220;9.884;2022-09-21T13:16:26;101839.75;;;20.73;41.95
16690;BME280;8458;52.220;9.884;2022-09-21T13:18:55;101831.94;;;21.03;42.10
16690;BME280;8458;52.220;9.884;2022-09-21T13:21:26;101831.81;;;21.08;40.58
16690;BME280;8458;52.220;9.884;2022-09-21T13:23:56;101834.91;;;21.39;41.11
16690;BME280;8458;52.220;9.884;2022-09-21T13:26:34;101825.19;;;21.64;39.35
16690;BME280;8458;52.220;9.884;2022-09-21T13:29:06;101829.78;;;21.88;41.04
16690;BME280;8458;52.220;9.884;2022-09-21T13:31:54;101821.63;;;21.87;41.39